Shoup, Idaho
Current Conditions -  °F | °C
As of 1:55 PM on Tuesday 25 Nov 2014 (Local Time) from KSMN Reporting Station
Overcast Overcast  
Wind Chill: 36°   Ceiling: 1400
Heat Index: 36°   Visibility: 5mi
Dew Point: 32°   Wind: 0mph
Humidity: 87%   Direction: NA
Pressure: 30.09"   Gusts: NA
Location:  45.38°N, 114.28°W
Report Text: KSMN 252055Z AUTO 00000KT 5SM SCT006 BKN014 OVC035 02/00 A3009 RMK AO1 P0004 60010 57003
Loading
Personal Weather Stations






























Interactive Weather Map New forecast layout! Learn more

10-Day Weather Forecast

Advertisements
Track Severe Weather on mobile